sensor_id;sensor_type;location;lat;lon;timestamp;P1;durP1;ratioP1;P2;durP2;ratioP2
1404;SDS011;697;51.114;6.542;2023-10-31T00:01:44;10.73;;;7.63;;
1404;SDS011;697;51.114;6.542;2023-10-31T00:04:11;7.97;;;7.33;;
1404;SDS011;697;51.114;6.542;2023-10-31T00:06:39;7.30;;;6.70;;
1404;SDS011;697;51.114;6.542;2023-10-31T00:09:06;8.20;;;7.40;;
1404;SDS011;697;51.114;6.542;2023-10-31T00:11:33;7.10;;;6.50;;
1404;SDS011;697;51.114;6.542;2023-10-31T00:13:59;6.03;;;5.53;;
1404;SDS011;697;51.114;6.542;2023-10-31T00:16:26;5.10;;;4.70;;
1404;SDS011;697;51.114;6.542;2023-10-31T00:18:53;3.80;;;3.33;;
1404;SDS011;697;51.114;6.542;2023-10-31T00:21:20;12.80;;;2.40;;
1404;SDS011;697;51.114;6.542;2023-10-31T00:23:48;2.20;;;1.90;;
1404;SDS011;697;51.114;6.542;2023-10-31T00:26:15;4.00;;;2.30;;
1404;SDS011;697;51.114;6.542;2023-10-31T00:28:42;2.33;;;2.13;;
1404;SDS011;697;51.114;6.542;2023-10-31T00:31:08;3.27;;;2.67;;
1404;SDS011;697;51.114;6.542;2023-10-31T00:33:36;3.47;;;3.17;;
1404;SDS011;697;51.114;6.542;2023-10-31T00:36:03;3.00;;;2.60;;
1404;SDS011;697;51.114;6.542;2023-10-31T00:38:30;3.93;;;3.63;;
1404;SDS011;697;51.114;6.542;2023-10-31T00:40:58;3.50;;;3.20;;
1404;SDS011;697;51.114;6.542;2023-10-31T00:43:25;5.27;;;4.13;;
1404;SDS011;697;51.114;6.542;2023-10-31T00:45:52;7.63;;;4.93;;
1404;SDS011;697;51.114;6.542;2023-10-31T00:48:19;4.70;;;4.10;;
1404;SDS011;697;51.114;6.542;2023-10-31T00:50:46;5.30;;;4.80;;
1404;SDS011;697;51.114;6.542;2023-10-31T00:53:12;5.30;;;4.90;;
1404;SDS011;697;51.114;6.542;2023-10-31T00:55:40;7.70;;;5.37;;
1404;SDS011;697;51.114;6.542;2023-10-31T00:58:08;8.43;;;7.20;;
1404;SDS011;697;51.114;6.542;2023-10-31T01:00:35;7.40;;;6.47;;
1404;SDS011;697;51.114;6.542;2023-10-31T01:03:02;6.67;;;6.17;;
1404;SDS011;697;51.114;6.542;2023-10-31T01:05:29;5.83;;;5.17;;
1404;SDS011;697;51.114;6.542;2023-10-31T01:07:55;5.80;;;4.90;;
1404;SDS011;697;51.114;6.542;2023-10-31T01:10:22;5.20;;;4.70;;
1404;SDS011;697;51.114;6.542;2023-10-31T01:12:49;5.00;;;4.50;;
1404;SDS011;697;51.114;6.542;2023-10-31T01:15:17;4.30;;;3.90;;
1404;SDS011;697;51.114;6.542;2023-10-31T01:17:44;8.37;;;4.77;;
1404;SDS011;697;51.114;6.542;2023-10-31T01:20:10;5.27;;;3.60;;
1404;SDS011;697;51.114;6.542;2023-10-31T01:22:37;8.37;;;4.40;;
1404;SDS011;697;51.114;6.542;2023-10-31T01:25:04;5.60;;;3.87;;
1404;SDS011;697;51.114;6.542;2023-10-31T01:27:31;8.00;;;3.90;;
1404;SDS011;697;51.114;6.542;2023-10-31T01:29:58;7.17;;;3.80;;
1404;SDS011;697;51.114;6.542;2023-10-31T01:32:26;5.87;;;3.80;;
1404;SDS011;697;51.114;6.542;2023-10-31T01:34:53;5.43;;;3.57;;
1404;SDS011;697;51.114;6.542;2023-10-31T01:37:19;5.53;;;4.63;;
1404;SDS011;697;51.114;6.542;2023-10-31T01:39:46;4.83;;;3.97;;
1404;SDS011;697;51.114;6.542;2023-10-31T01:42:13;4.23;;;3.90;;
1404;SDS011;697;51.114;6.542;2023-10-31T01:44:40;4.40;;;3.83;;
1404;SDS011;697;51.114;6.542;2023-10-31T01:47:07;10.33;;;7.87;;
1404;SDS011;697;51.114;6.542;2023-10-31T01:49:35;17.17;;;13.83;;
1404;SDS011;697;51.114;6.542;2023-10-31T01:52:03;18.33;;;14.60;;
1404;SDS011;697;51.114;6.542;2023-10-31T01:54:30;16.13;;;14.50;;
1404;SDS011;697;51.114;6.542;2023-10-31T01:56:58;15.20;;;12.13;;
1404;SDS011;697;51.114;6.542;2023-10-31T01:59:26;13.07;;;11.70;;
1404;SDS011;697;51.114;6.542;2023-10-31T02:01:53;10.30;;;8.50;;
1404;SDS011;697;51.114;6.542;2023-10-31T02:04:21;12.43;;;9.30;;
1404;SDS011;697;51.114;6.542;2023-10-31T02:06:49;10.37;;;8.60;;
1404;SDS011;697;51.114;6.542;2023-10-31T02:09:16;11.60;;;7.90;;
1404;SDS011;697;51.114;6.542;2023-10-31T02:11:43;7.97;;;7.17;;
1404;SDS011;697;51.114;6.542;2023-10-31T02:14:09;10.53;;;7.30;;
1404;SDS011;697;51.114;6.542;2023-10-31T02:16:36;9.60;;;6.13;;
1404;SDS011;697;51.114;6.542;2023-10-31T02:19:03;7.73;;;5.90;;
1404;SDS011;697;51.114;6.542;2023-10-31T02:21:30;7.80;;;6.07;;
1404;SDS011;697;51.114;6.542;2023-10-31T02:23:59;7.47;;;5.93;;
1404;SDS011;697;51.114;6.542;2023-10-31T02:26:30;7.97;;;5.80;;
1404;SDS011;697;51.114;6.542;2023-10-31T02:28:57;9.33;;;5.77;;
1404;SDS011;697;51.114;6.542;2023-10-31T02:31:24;8.70;;;5.43;;
1404;SDS011;697;51.114;6.542;2023-10-31T02:33:51;9.77;;;6.03;;
1404;SDS011;697;51.114;6.542;2023-10-31T02:36:18;8.10;;;6.47;;
1404;SDS011;697;51.114;6.542;2023-10-31T02:38:45;9.70;;;6.00;;
1404;SDS011;697;51.114;6.542;2023-10-31T02:41:13;9.83;;;6.60;;
1404;SDS011;697;51.114;6.542;2023-10-31T02:43:40;9.67;;;6.40;;
1404;SDS011;697;51.114;6.542;2023-10-31T02:46:07;8.37;;;7.07;;
1404;SDS011;697;51.114;6.542;2023-10-31T02:48:35;7.10;;;6.40;;
1404;SDS011;697;51.114;6.542;2023-10-31T02:51:04;6.47;;;5.63;;
1404;SDS011;697;51.114;6.542;2023-10-31T02:53:31;10.07;;;6.20;;
1404;SDS011;697;51.114;6.542;2023-10-31T02:55:58;7.20;;;6.50;;
1404;SDS011;697;51.114;6.542;2023-10-31T02:58:26;8.50;;;6.17;;
1404;SDS011;697;51.114;6.542;2023-10-31T03:00:52;7.07;;;6.27;;
1404;SDS011;697;51.114;6.542;2023-10-31T03:03:19;6.63;;;5.87;;
1404;SDS011;697;51.114;6.542;2023-10-31T03:05:46;9.37;;;6.70;;
1404;SDS011;697;51.114;6.542;2023-10-31T03:08:12;8.10;;;6.40;;
1404;SDS011;697;51.114;6.542;2023-10-31T03:10:40;6.20;;;5.03;;
1404;SDS011;697;51.114;6.542;2023-10-31T03:13:07;8.20;;;5.17;;
1404;SDS011;697;51.114;6.542;2023-10-31T03:15:35;8.03;;;5.13;;
1404;SDS011;697;51.114;6.542;2023-10-31T03:18:02;8.43;;;4.67;;
1404;SDS011;697;51.114;6.542;2023-10-31T03:20:28;5.20;;;4.70;;
1404;SDS011;697;51.114;6.542;2023-10-31T03:22:56;8.33;;;4.50;;
1404;SDS011;697;51.114;6.542;2023-10-31T03:25:22;4.87;;;4.47;;
1404;SDS011;697;51.114;6.542;2023-10-31T03:27:49;5.47;;;4.67;;
1404;SDS011;697;51.114;6.542;2023-10-31T03:30:16;8.07;;;4.50;;
1404;SDS011;697;51.114;6.542;2023-10-31T03:32:44;5.80;;;4.33;;
1404;SDS011;697;51.114;6.542;2023-10-31T03:35:10;7.73;;;3.70;;
1404;SDS011;697;51.114;6.542;2023-10-31T03:37:37;5.90;;;4.40;;
1404;SDS011;697;51.114;6.542;2023-10-31T03:40:07;5.13;;;3.63;;
1404;SDS011;697;51.114;6.542;2023-10-31T03:42:34;4.50;;;3.50;;
1404;SDS011;697;51.114;6.542;2023-10-31T03:45:01;5.20;;;3.70;;
1404;SDS011;697;51.114;6.542;2023-10-31T03:47:28;5.27;;;3.50;;
1404;SDS011;697;51.114;6.542;2023-10-31T03:49:56;4.03;;;3.03;;
1404;SDS011;697;51.114;6.542;2023-10-31T03:52:22;4.73;;;3.17;;
1404;SDS011;697;51.114;6.542;2023-10-31T03:54:49;5.33;;;3.50;;
1404;SDS011;697;51.114;6.542;2023-10-31T03:57:16;5.20;;;3.20;;
1404;SDS011;697;51.114;6.542;2023-10-31T03:59:42;4.50;;;3.70;;
1404;SDS011;697;51.114;6.542;2023-10-31T04:02:09;4.07;;;3.67;;
1404;SDS011;697;51.114;6.542;2023-10-31T04:04:36;4.80;;;3.60;;
1404;SDS011;697;51.114;6.542;2023-10-31T04:07:04;4.90;;;4.13;;
1404;SDS011;697;51.114;6.542;2023-10-31T04:09:32;4.90;;;4.40;;
1404;SDS011;697;51.114;6.542;2023-10-31T04:11:59;4.50;;;3.97;;
1404;SDS011;697;51.114;6.542;2023-10-31T04:14:25;3.87;;;3.57;;
1404;SDS011;697;51.114;6.542;2023-10-31T04:16:52;5.07;;;4.30;;
1404;SDS011;697;51.114;6.542;2023-10-31T04:19:19;5.77;;;4.20;;
1404;SDS011;697;51.114;6.542;2023-10-31T04:21:45;4.40;;;4.00;;
1404;SDS011;697;51.114;6.542;2023-10-31T04:24:13;4.30;;;4.00;;
1404;SDS011;697;51.114;6.542;2023-10-31T04:26:40;5.33;;;4.00;;
1404;SDS011;697;51.114;6.542;2023-10-31T04:29:07;4.77;;;3.70;;
1404;SDS011;697;51.114;6.542;2023-10-31T04:31:34;4.73;;;4.20;;
1404;SDS011;697;51.114;6.542;2023-10-31T04:34:00;5.70;;;4.53;;
1404;SDS011;697;51.114;6.542;2023-10-31T04:36:27;4.87;;;4.47;;
1404;SDS011;697;51.114;6.542;2023-10-31T04:38:54;5.77;;;5.13;;
1404;SDS011;697;51.114;6.542;2023-10-31T04:41:21;5.57;;;4.93;;
1404;SDS011;697;51.114;6.542;2023-10-31T04:43:48;4.80;;;4.40;;
1404;SDS011;697;51.114;6.542;2023-10-31T04:46:14;5.17;;;4.67;;
1404;SDS011;697;51.114;6.542;2023-10-31T04:48:41;5.20;;;4.70;;
1404;SDS011;697;51.114;6.542;2023-10-31T04:51:08;5.70;;;4.73;;
1404;SDS011;697;51.114;6.542;2023-10-31T04:53:35;5.20;;;4.80;;
1404;SDS011;697;51.114;6.542;2023-10-31T04:56:01;6.73;;;5.20;;
1404;SDS011;697;51.114;6.542;2023-10-31T04:58:30;5.20;;;4.70;;
1404;SDS011;697;51.114;6.542;2023-10-31T05:00:56;7.80;;;4.80;;
1404;SDS011;697;51.114;6.542;2023-10-31T05:03:23;4.13;;;3.83;;
1404;SDS011;697;51.114;6.542;2023-10-31T05:05:50;5.87;;;4.30;;
1404;SDS011;697;51.114;6.542;2023-10-31T05:08:16;4.80;;;4.30;;
1404;SDS011;697;51.114;6.542;2023-10-31T05:10:43;3.80;;;3.50;;
1404;SDS011;697;51.114;6.542;2023-10-31T05:13:12;7.10;;;4.40;;
1404;SDS011;697;51.114;6.542;2023-10-31T05:15:40;6.40;;;4.27;;
1404;SDS011;697;51.114;6.542;2023-10-31T05:18:07;5.63;;;4.17;;
1404;SDS011;697;51.114;6.542;2023-10-31T05:20:34;5.03;;;4.40;;
1404;SDS011;697;51.114;6.542;2023-10-31T05:23:00;8.20;;;5.00;;
1404;SDS011;697;51.114;6.542;2023-10-31T05:25:27;6.33;;;5.10;;
1404;SDS011;697;51.114;6.542;2023-10-31T05:27:54;4.87;;;4.47;;
1404;SDS011;697;51.114;6.542;2023-10-31T05:30:21;5.30;;;4.80;;
1404;SDS011;697;51.114;6.542;2023-10-31T05:32:49;5.17;;;4.67;;
1404;SDS011;697;51.114;6.542;2023-10-31T05:35:16;5.33;;;4.83;;
1404;SDS011;697;51.114;6.542;2023-10-31T05:37:43;6.43;;;5.80;;
1404;SDS011;697;51.114;6.542;2023-10-31T05:40:10;5.87;;;5.40;;
1404;SDS011;697;51.114;6.542;2023-10-31T05:42:37;6.10;;;5.43;;
1404;SDS011;697;51.114;6.542;2023-10-31T05:45:04;5.70;;;5.20;;
1404;SDS011;697;51.114;6.542;2023-10-31T05:47:32;6.60;;;5.83;;
1404;SDS011;697;51.114;6.542;2023-10-31T05:50:00;6.20;;;5.60;;
1404;SDS011;697;51.114;6.542;2023-10-31T05:52:27;6.43;;;5.80;;
1404;SDS011;697;51.114;6.542;2023-10-31T05:54:54;7.60;;;6.30;;
1404;SDS011;697;51.114;6.542;2023-10-31T05:57:21;6.30;;;5.70;;
1404;SDS011;697;51.114;6.542;2023-10-31T05:59:48;6.53;;;5.93;;
1404;SDS011;697;51.114;6.542;2023-10-31T06:02:14;6.83;;;6.23;;
1404;SDS011;697;51.114;6.542;2023-10-31T06:04:41;6.13;;;5.57;;
1404;SDS011;697;51.114;6.542;2023-10-31T06:07:09;6.80;;;6.20;;
1404;SDS011;697;51.114;6.542;2023-10-31T06:09:36;6.90;;;6.40;;
1404;SDS011;697;51.114;6.542;2023-10-31T06:12:03;7.83;;;5.80;;
1404;SDS011;697;51.114;6.542;2023-10-31T06:14:31;6.20;;;5.57;;
1404;SDS011;697;51.114;6.542;2023-10-31T06:16:57;6.87;;;5.97;;
1404;SDS011;697;51.114;6.542;2023-10-31T06:19:26;7.33;;;5.67;;
1404;SDS011;697;51.114;6.542;2023-10-31T06:21:53;5.43;;;5.03;;
1404;SDS011;697;51.114;6.542;2023-10-31T06:24:21;8.67;;;6.17;;
1404;SDS011;697;51.114;6.542;2023-10-31T06:26:47;10.93;;;6.40;;
1404;SDS011;697;51.114;6.542;2023-10-31T06:29:14;6.57;;;5.97;;
1404;SDS011;697;51.114;6.542;2023-10-31T06:31:40;7.80;;;7.10;;
1404;SDS011;697;51.114;6.542;2023-10-31T06:34:07;7.40;;;6.73;;
1404;SDS011;697;51.114;6.542;2023-10-31T06:36:34;7.77;;;7.00;;
1404;SDS011;697;51.114;6.542;2023-10-31T06:39:00;8.53;;;7.83;;
1404;SDS011;697;51.114;6.542;2023-10-31T06:41:29;8.40;;;7.70;;
1404;SDS011;697;51.114;6.542;2023-10-31T06:43:56;8.60;;;7.80;;
1404;SDS011;697;51.114;6.542;2023-10-31T06:46:22;9.77;;;8.77;;
1404;SDS011;697;51.114;6.542;2023-10-31T06:48:49;11.50;;;10.10;;
1404;SDS011;697;51.114;6.542;2023-10-31T06:51:16;12.63;;;10.10;;
1404;SDS011;697;51.114;6.542;2023-10-31T06:53:43;11.03;;;9.93;;
1404;SDS011;697;51.114;6.542;2023-10-31T06:56:10;12.70;;;11.43;;
1404;SDS011;697;51.114;6.542;2023-10-31T06:58:38;11.93;;;10.73;;
1404;SDS011;697;51.114;6.542;2023-10-31T07:01:04;11.43;;;9.80;;
1404;SDS011;697;51.114;6.542;2023-10-31T07:03:31;10.27;;;9.20;;
1404;SDS011;697;51.114;6.542;2023-10-31T07:05:58;11.10;;;9.90;;
1404;SDS011;697;51.114;6.542;2023-10-31T07:08:24;9.20;;;8.30;;
1404;SDS011;697;51.114;6.542;2023-10-31T07:10:51;10.10;;;8.43;;
1404;SDS011;697;51.114;6.542;2023-10-31T07:13:18;9.27;;;8.37;;
1404;SDS011;697;51.114;6.542;2023-10-31T07:15:46;8.63;;;7.87;;
1404;SDS011;697;51.114;6.542;2023-10-31T07:18:13;9.07;;;8.17;;
1404;SDS011;697;51.114;6.542;2023-10-31T07:20:39;9.00;;;8.13;;
1404;SDS011;697;51.114;6.542;2023-10-31T07:23:06;10.30;;;9.13;;
1404;SDS011;697;51.114;6.542;2023-10-31T07:25:34;8.30;;;7.60;;
1404;SDS011;697;51.114;6.542;2023-10-31T07:28:00;9.33;;;8.37;;
1404;SDS011;697;51.114;6.542;2023-10-31T07:30:27;8.37;;;7.60;;
1404;SDS011;697;51.114;6.542;2023-10-31T07:32:56;10.40;;;7.67;;
1404;SDS011;697;51.114;6.542;2023-10-31T07:35:23;8.57;;;7.60;;
1404;SDS011;697;51.114;6.542;2023-10-31T07:37:49;9.20;;;7.93;;
1404;SDS011;697;51.114;6.542;2023-10-31T07:40:16;7.93;;;7.17;;
1404;SDS011;697;51.114;6.542;2023-10-31T07:42:43;7.73;;;7.03;;
1404;SDS011;697;51.114;6.542;2023-10-31T07:45:09;8.73;;;7.93;;
1404;SDS011;697;51.114;6.542;2023-10-31T07:47:36;8.23;;;7.43;;
1404;SDS011;697;51.114;6.542;2023-10-31T07:50:05;7.70;;;7.00;;
1404;SDS011;697;51.114;6.542;2023-10-31T07:52:32;7.40;;;6.80;;
1404;SDS011;697;51.114;6.542;2023-10-31T07:54:58;8.87;;;7.43;;
1404;SDS011;697;51.114;6.542;2023-10-31T07:57:25;7.57;;;6.77;;
1404;SDS011;697;51.114;6.542;2023-10-31T07:59:52;7.70;;;6.90;;
1404;SDS011;697;51.114;6.542;2023-10-31T08:02:18;10.57;;;7.23;;
1404;SDS011;697;51.114;6.542;2023-10-31T08:04:45;8.73;;;7.83;;
1404;SDS011;697;51.114;6.542;2023-10-31T08:07:13;8.60;;;6.67;;
1404;SDS011;697;51.114;6.542;2023-10-31T08:09:40;7.37;;;6.50;;
1404;SDS011;697;51.114;6.542;2023-10-31T08:12:06;9.90;;;7.23;;
1404;SDS011;697;51.114;6.542;2023-10-31T08:14:33;7.20;;;6.50;;
1404;SDS011;697;51.114;6.542;2023-10-31T08:17:00;6.90;;;6.30;;
1404;SDS011;697;51.114;6.542;2023-10-31T08:19:26;7.17;;;6.43;;
1404;SDS011;697;51.114;6.542;2023-10-31T08:21:53;13.53;;;7.90;;
1404;SDS011;697;51.114;6.542;2023-10-31T08:24:21;7.97;;;7.17;;
1404;SDS011;697;51.114;6.542;2023-10-31T08:26:48;8.00;;;6.63;;
1404;SDS011;697;51.114;6.542;2023-10-31T08:29:15;6.83;;;6.23;;
1404;SDS011;697;51.114;6.542;2023-10-31T08:31:41;6.93;;;6.33;;
1404;SDS011;697;51.114;6.542;2023-10-31T08:34:08;6.80;;;6.17;;
1404;SDS011;697;51.114;6.542;2023-10-31T08:36:35;7.10;;;6.40;;
1404;SDS011;697;51.114;6.542;2023-10-31T08:39:02;7.03;;;6.33;;
1404;SDS011;697;51.114;6.542;2023-10-31T08:41:30;7.23;;;6.53;;
1404;SDS011;697;51.114;6.542;2023-10-31T08:43:57;5.50;;;5.10;;
1404;SDS011;697;51.114;6.542;2023-10-31T08:46:24;6.77;;;6.17;;
1404;SDS011;697;51.114;6.542;2023-10-31T08:48:51;8.87;;;6.73;;
1404;SDS011;697;51.114;6.542;2023-10-31T08:51:18;7.20;;;6.50;;
1404;SDS011;697;51.114;6.542;2023-10-31T08:53:44;6.70;;;6.00;;
1404;SDS011;697;51.114;6.542;2023-10-31T08:56:11;5.57;;;5.07;;
1404;SDS011;697;51.114;6.542;2023-10-31T08:58:39;6.50;;;5.00;;
1404;SDS011;697;51.114;6.542;2023-10-31T09:01:06;5.40;;;4.87;;
1404;SDS011;697;51.114;6.542;2023-10-31T09:03:32;5.33;;;4.83;;
1404;SDS011;697;51.114;6.542;2023-10-31T09:05:59;5.90;;;5.30;;
1404;SDS011;697;51.114;6.542;2023-10-31T09:08:27;8.13;;;5.27;;
1404;SDS011;697;51.114;6.542;2023-10-31T09:10:53;5.53;;;4.00;;
1404;SDS011;697;51.114;6.542;2023-10-31T09:13:20;5.60;;;4.60;;
1404;SDS011;697;51.114;6.542;2023-10-31T09:15:48;5.03;;;4.47;;
1404;SDS011;697;51.114;6.542;2023-10-31T09:18:15;5.63;;;5.13;;
1404;SDS011;697;51.114;6.542;2023-10-31T09:20:42;4.03;;;3.73;;
1404;SDS011;697;51.114;6.542;2023-10-31T09:23:09;4.57;;;4.17;;
1404;SDS011;697;51.114;6.542;2023-10-31T09:25:36;6.30;;;3.17;;
1404;SDS011;697;51.114;6.542;2023-10-31T09:28:02;2.80;;;2.60;;
1404;SDS011;697;51.114;6.542;2023-10-31T09:30:29;4.03;;;2.93;;
1404;SDS011;697;51.114;6.542;2023-10-31T09:32:57;3.83;;;2.90;;
1404;SDS011;697;51.114;6.542;2023-10-31T09:35:24;4.67;;;2.63;;
1404;SDS011;697;51.114;6.542;2023-10-31T09:37:51;6.00;;;3.17;;
1404;SDS011;697;51.114;6.542;2023-10-31T09:40:18;3.93;;;2.70;;
1404;SDS011;697;51.114;6.542;2023-10-31T09:42:45;4.83;;;3.83;;
1404;SDS011;697;51.114;6.542;2023-10-31T09:45:12;2.13;;;2.00;;
1404;SDS011;697;51.114;6.542;2023-10-31T09:47:40;2.40;;;2.20;;
1404;SDS011;697;51.114;6.542;2023-10-31T09:50:09;3.23;;;2.43;;
1404;SDS011;697;51.114;6.542;2023-10-31T09:52:36;4.70;;;2.30;;
1404;SDS011;697;51.114;6.542;2023-10-31T09:55:04;2.83;;;2.47;;
1404;SDS011;697;51.114;6.542;2023-10-31T09:57:31;2.30;;;2.10;;
1404;SDS011;697;51.114;6.542;2023-10-31T09:59:58;2.63;;;2.30;;
1404;SDS011;697;51.114;6.542;2023-10-31T10:02:25;3.73;;;2.43;;
1404;SDS011;697;51.114;6.542;2023-10-31T10:04:52;3.87;;;1.93;;
1404;SDS011;697;51.114;6.542;2023-10-31T10:07:20;3.10;;;2.80;;
1404;SDS011;697;51.114;6.542;2023-10-31T10:09:47;3.70;;;2.60;;
1404;SDS011;697;51.114;6.542;2023-10-31T10:12:14;3.33;;;2.80;;
1404;SDS011;697;51.114;6.542;2023-10-31T10:14:44;3.13;;;2.13;;
1404;SDS011;697;51.114;6.542;2023-10-31T10:17:15;7.10;;;2.20;;
1404;SDS011;697;51.114;6.542;2023-10-31T10:19:42;2.47;;;2.10;;
1404;SDS011;697;51.114;6.542;2023-10-31T10:22:09;4.57;;;2.13;;
1404;SDS011;697;51.114;6.542;2023-10-31T10:24:40;2.10;;;1.90;;
1404;SDS011;697;51.114;6.542;2023-10-31T10:27:07;2.33;;;2.00;;
1404;SDS011;697;51.114;6.542;2023-10-31T10:29:34;3.83;;;1.83;;
1404;SDS011;697;51.114;6.542;2023-10-31T10:32:04;2.70;;;2.20;;
1404;SDS011;697;51.114;6.542;2023-10-31T10:34:33;2.37;;;1.70;;
1404;SDS011;697;51.114;6.542;2023-10-31T10:36:59;2.40;;;1.50;;
1404;SDS011;697;51.114;6.542;2023-10-31T10:39:29;2.13;;;1.93;;
1404;SDS011;697;51.114;6.542;2023-10-31T10:42:00;3.40;;;2.00;;
1404;SDS011;697;51.114;6.542;2023-10-31T10:44:32;2.33;;;1.70;;
1404;SDS011;697;51.114;6.542;2023-10-31T10:47:01;2.63;;;1.97;;
1404;SDS011;697;51.114;6.542;2023-10-31T10:49:31;3.43;;;2.20;;
1404;SDS011;697;51.114;6.542;2023-10-31T10:52:01;3.30;;;2.00;;
1404;SDS011;697;51.114;6.542;2023-10-31T10:54:41;3.30;;;2.27;;
1404;SDS011;697;51.114;6.542;2023-10-31T10:57:14;2.00;;;1.80;;
1404;SDS011;697;51.114;6.542;2023-10-31T10:59:47;4.60;;;1.70;;
1404;SDS011;697;51.114;6.542;2023-10-31T11:02:16;2.60;;;1.57;;
1404;SDS011;697;51.114;6.542;2023-10-31T11:04:44;3.60;;;1.80;;
1404;SDS011;697;51.114;6.542;2023-10-31T11:07:11;1.80;;;1.60;;
1404;SDS011;697;51.114;6.542;2023-10-31T11:09:38;3.20;;;1.40;;
1404;SDS011;697;51.114;6.542;2023-10-31T11:12:08;2.53;;;1.30;;
1404;SDS011;697;51.114;6.542;2023-10-31T11:14:38;1.30;;;1.20;;
1404;SDS011;697;51.114;6.542;2023-10-31T11:17:09;1.90;;;1.43;;
1404;SDS011;697;51.114;6.542;2023-10-31T11:19:42;5.13;;;1.40;;
1404;SDS011;697;51.114;6.542;2023-10-31T11:22:09;2.20;;;1.30;;
1404;SDS011;697;51.114;6.542;2023-10-31T11:24:36;4.80;;;1.87;;
1404;SDS011;697;51.114;6.542;2023-10-31T11:27:04;2.57;;;1.50;;
1404;SDS011;697;51.114;6.542;2023-10-31T11:29:32;2.70;;;1.50;;
1404;SDS011;697;51.114;6.542;2023-10-31T11:32:02;2.23;;;1.20;;
1404;SDS011;697;51.114;6.542;2023-10-31T11:34:30;2.93;;;1.50;;
1404;SDS011;697;51.114;6.542;2023-10-31T11:39:48;4.10;;;1.60;;
1404;SDS011;697;51.114;6.542;2023-10-31T11:42:42;6.00;;;1.80;;
1404;SDS011;697;51.114;6.542;2023-10-31T11:45:09;2.60;;;1.70;;
1404;SDS011;697;51.114;6.542;2023-10-31T11:47:47;2.20;;;1.43;;
1404;SDS011;697;51.114;6.542;2023-10-31T11:50:13;4.10;;;1.30;;
1404;SDS011;697;51.114;6.542;2023-10-31T11:52:40;3.80;;;1.70;;
1404;SDS011;697;51.114;6.542;2023-10-31T11:55:08;3.33;;;1.53;;
1404;SDS011;697;51.114;6.542;2023-10-31T11:57:36;2.60;;;1.43;;
1404;SDS011;697;51.114;6.542;2023-10-31T12:00:03;4.10;;;1.80;;
1404;SDS011;697;51.114;6.542;2023-10-31T12:02:30;4.60;;;1.90;;
1404;SDS011;697;51.114;6.542;2023-10-31T12:05:08;2.90;;;1.70;;
1404;SDS011;697;51.114;6.542;2023-10-31T12:07:42;4.10;;;1.83;;
1404;SDS011;697;51.114;6.542;2023-10-31T12:10:09;3.03;;;1.40;;
1404;SDS011;697;51.114;6.542;2023-10-31T12:12:36;5.43;;;1.33;;
1404;SDS011;697;51.114;6.542;2023-10-31T12:15:06;1.80;;;1.10;;
1404;SDS011;697;51.114;6.542;2023-10-31T12:17:33;3.10;;;1.50;;
1404;SDS011;697;51.114;6.542;2023-10-31T12:20:03;4.30;;;1.20;;
1404;SDS011;697;51.114;6.542;2023-10-31T12:22:31;3.20;;;1.30;;
1404;SDS011;697;51.114;6.542;2023-10-31T12:25:01;4.43;;;1.77;;
1404;SDS011;697;51.114;6.542;2023-10-31T12:27:41;5.53;;;1.80;;
1404;SDS011;697;51.114;6.542;2023-10-31T12:30:09;1.83;;;1.30;;
1404;SDS011;697;51.114;6.542;2023-10-31T12:32:37;7.53;;;2.17;;
1404;SDS011;697;51.114;6.542;2023-10-31T12:35:04;1.63;;;1.20;;
1404;SDS011;697;51.114;6.542;2023-10-31T12:37:32;2.37;;;1.10;;
1404;SDS011;697;51.114;6.542;2023-10-31T12:39:59;10.00;;;1.50;;
1404;SDS011;697;51.114;6.542;2023-10-31T12:42:29;3.53;;;0.97;;
1404;SDS011;697;51.114;6.542;2023-10-31T12:44:57;1.60;;;1.03;;
1404;SDS011;697;51.114;6.542;2023-10-31T12:47:25;3.73;;;1.40;;
1404;SDS011;697;51.114;6.542;2023-10-31T12:50:05;1.40;;;0.83;;
1404;SDS011;697;51.114;6.542;2023-10-31T12:52:46;1.63;;;1.00;;
1404;SDS011;697;51.114;6.542;2023-10-31T12:55:14;3.90;;;1.23;;
1404;SDS011;697;51.114;6.542;2023-10-31T12:57:41;3.33;;;1.20;;
1404;SDS011;697;51.114;6.542;2023-10-31T13:00:09;5.53;;;1.23;;
1404;SDS011;697;51.114;6.542;2023-10-31T13:02:37;5.73;;;1.00;;
1404;SDS011;697;51.114;6.542;2023-10-31T13:05:09;3.70;;;1.47;;
1404;SDS011;697;51.114;6.542;2023-10-31T13:07:37;2.30;;;0.60;;
1404;SDS011;697;51.114;6.542;2023-10-31T13:10:06;3.30;;;1.10;;
1404;SDS011;697;51.114;6.542;2023-10-31T13:12:34;2.20;;;0.90;;
1404;SDS011;697;51.114;6.542;2023-10-31T13:15:01;4.17;;;1.67;;
1404;SDS011;697;51.114;6.542;2023-10-31T13:17:28;1.67;;;1.00;;
1404;SDS011;697;51.114;6.542;2023-10-31T13:19:56;2.03;;;1.30;;
1404;SDS011;697;51.114;6.542;2023-10-31T13:22:23;1.27;;;1.10;;
1404;SDS011;697;51.114;6.542;2023-10-31T13:24:50;3.60;;;1.00;;
1404;SDS011;697;51.114;6.542;2023-10-31T13:27:18;4.67;;;1.13;;
1404;SDS011;697;51.114;6.542;2023-10-31T13:29:44;4.20;;;1.00;;
1404;SDS011;697;51.114;6.542;2023-10-31T13:32:14;2.00;;;0.80;;
1404;SDS011;697;51.114;6.542;2023-10-31T13:34:41;2.20;;;0.80;;
1404;SDS011;697;51.114;6.542;2023-10-31T13:37:08;3.20;;;1.13;;
1404;SDS011;697;51.114;6.542;2023-10-31T13:39:35;3.33;;;1.10;;
1404;SDS011;697;51.114;6.542;2023-10-31T13:42:02;3.07;;;1.17;;
1404;SDS011;697;51.114;6.542;2023-10-31T13:44:30;2.40;;;1.30;;
1404;SDS011;697;51.114;6.542;2023-10-31T13:46:56;3.60;;;1.00;;
1404;SDS011;697;51.114;6.542;2023-10-31T13:49:23;1.67;;;0.80;;
1404;SDS011;697;51.114;6.542;2023-10-31T13:51:50;3.47;;;1.10;;
1404;SDS011;697;51.114;6.542;2023-10-31T13:54:17;4.67;;;1.50;;
1404;SDS011;697;51.114;6.542;2023-10-31T13:56:44;2.70;;;1.30;;
1404;SDS011;697;51.114;6.542;2023-10-31T13:59:11;4.40;;;1.60;;
1404;SDS011;697;51.114;6.542;2023-10-31T14:01:39;2.57;;;1.13;;
1404;SDS011;697;51.114;6.542;2023-10-31T14:04:06;5.73;;;1.10;;
1404;SDS011;697;51.114;6.542;2023-10-31T14:06:33;5.20;;;1.20;;
1404;SDS011;697;51.114;6.542;2023-10-31T14:09:00;2.90;;;1.83;;
1404;SDS011;697;51.114;6.542;2023-10-31T14:11:29;5.70;;;1.40;;
1404;SDS011;697;51.114;6.542;2023-10-31T14:13:56;5.13;;;1.20;;
1404;SDS011;697;51.114;6.542;2023-10-31T14:16:27;4.90;;;1.30;;
1404;SDS011;697;51.114;6.542;2023-10-31T14:18:56;4.87;;;1.50;;
1404;SDS011;697;51.114;6.542;2023-10-31T14:21:22;7.53;;;1.40;;
1404;SDS011;697;51.114;6.542;2023-10-31T14:23:50;3.70;;;1.30;;
1404;SDS011;697;51.114;6.542;2023-10-31T14:26:19;6.37;;;1.60;;
1404;SDS011;697;51.114;6.542;2023-10-31T14:28:45;4.50;;;1.63;;
1404;SDS011;697;51.114;6.542;2023-10-31T14:31:12;4.10;;;1.20;;
1404;SDS011;697;51.114;6.542;2023-10-31T14:33:39;4.80;;;1.67;;
1404;SDS011;697;51.114;6.542;2023-10-31T14:36:08;5.17;;;1.33;;
1404;SDS011;697;51.114;6.542;2023-10-31T14:38:37;4.40;;;1.63;;
1404;SDS011;697;51.114;6.542;2023-10-31T14:41:04;4.67;;;1.53;;
1404;SDS011;697;51.114;6.542;2023-10-31T14:43:32;3.50;;;1.10;;
1404;SDS011;697;51.114;6.542;2023-10-31T14:45:59;8.93;;;1.40;;
1404;SDS011;697;51.114;6.542;2023-10-31T14:48:26;4.47;;;1.33;;
1404;SDS011;697;51.114;6.542;2023-10-31T14:50:53;4.90;;;1.33;;
1404;SDS011;697;51.114;6.542;2023-10-31T14:53:23;4.17;;;1.20;;
1404;SDS011;697;51.114;6.542;2023-10-31T14:55:50;3.07;;;1.37;;
1404;SDS011;697;51.114;6.542;2023-10-31T14:58:16;4.80;;;1.57;;
1404;SDS011;697;51.114;6.542;2023-10-31T15:00:43;1.30;;;0.93;;
1404;SDS011;697;51.114;6.542;2023-10-31T15:03:10;3.33;;;1.23;;
1404;SDS011;697;51.114;6.542;2023-10-31T15:05:37;3.47;;;0.90;;
1404;SDS011;697;51.114;6.542;2023-10-31T15:08:04;4.00;;;1.47;;
1404;SDS011;697;51.114;6.542;2023-10-31T15:10:32;3.90;;;1.17;;
1404;SDS011;697;51.114;6.542;2023-10-31T15:13:00;4.30;;;1.13;;
1404;SDS011;697;51.114;6.542;2023-10-31T15:15:27;3.93;;;1.40;;
1404;SDS011;697;51.114;6.542;2023-10-31T15:17:54;2.80;;;1.17;;
1404;SDS011;697;51.114;6.542;2023-10-31T15:20:20;7.33;;;1.63;;
1404;SDS011;697;51.114;6.542;2023-10-31T15:22:47;4.13;;;1.53;;
1404;SDS011;697;51.114;6.542;2023-10-31T15:25:14;2.30;;;1.27;;
1404;SDS011;697;51.114;6.542;2023-10-31T15:27:42;2.93;;;1.80;;
1404;SDS011;697;51.114;6.542;2023-10-31T15:30:09;3.70;;;1.53;;
1404;SDS011;697;51.114;6.542;2023-10-31T15:32:36;4.33;;;1.87;;
1404;SDS011;697;51.114;6.542;2023-10-31T15:35:04;3.93;;;1.70;;